createdAt,value
2018-11-03T00:01:40.466Z,101423.23
2018-11-03T00:04:08.939Z,101423.34
2018-11-03T00:06:37.550Z,101428.86
2018-11-03T00:09:08.840Z,101443.65
2018-11-03T00:11:37.723Z,101446.41
2018-11-03T00:14:06.395Z,101450.87
2018-11-03T00:16:35.958Z,101461.42
2018-11-03T00:19:04.484Z,101455.42
2018-11-03T00:21:33.240Z,101473.13
2018-11-03T00:24:01.799Z,101470.05
2018-11-03T00:26:30.558Z,101470.94
2018-11-03T00:28:59.090Z,101480.23
2018-11-03T00:31:27.645Z,101473.36
2018-11-03T00:33:56.232Z,101473.30
2018-11-03T00:36:24.706Z,101473.41
2018-11-03T00:38:53.466Z,101473.47
2018-11-03T00:41:21.955Z,101478.85
2018-11-03T00:43:50.614Z,101375.72
2018-11-03T00:46:19.303Z,101482.42
2018-11-03T00:48:47.838Z,101486.88
2018-11-03T00:51:16.343Z,101485.95
2018-11-03T00:53:44.819Z,101490.55
2018-11-03T00:56:13.468Z,101473.52
2018-11-03T00:58:42.015Z,101481.48
2018-11-03T01:01:10.702Z,101482.86
2018-11-03T01:03:39.281Z,101489.27
2018-11-03T01:06:07.888Z,101490.98
2018-11-03T01:08:36.435Z,101490.59
2018-11-03T01:11:05.295Z,101502.95
2018-11-03T01:13:33.971Z,101483.22
2018-11-03T01:16:02.519Z,101509.37
2018-11-03T01:18:31.333Z,101506.41
2018-11-03T01:20:59.976Z,101518.37
2018-11-03T01:23:28.767Z,101505.98
2018-11-03T01:25:57.465Z,101515.55
2018-11-03T01:28:26.067Z,101521.33
2018-11-03T01:30:54.543Z,101522.25
2018-11-03T01:33:23.111Z,101518.00
2018-11-03T01:35:51.710Z,101524.40
2018-11-03T01:38:20.260Z,101519.92
2018-11-03T01:40:49.054Z,101488.31
2018-11-03T01:43:17.663Z,101531.39
2018-11-03T01:45:46.607Z,101524.50
2018-11-03T01:48:15.351Z,101530.27
2018-11-03T01:50:44.031Z,101521.09
2018-11-03T01:53:12.526Z,101521.55
2018-11-03T01:55:41.064Z,101529.45
2018-11-03T01:58:09.790Z,101532.08
2018-11-03T02:00:38.321Z,101531.19
2018-11-03T02:03:07.127Z,101528.90
2018-11-03T02:05:35.612Z,101532.80
2018-11-03T02:08:04.276Z,101531.09
2018-11-03T02:10:32.802Z,101530.17
2018-11-03T02:13:01.352Z,101534.56
2018-11-03T02:15:30.004Z,101538.17
2018-11-03T02:17:58.450Z,101540.81
2018-11-03T02:20:27.429Z,101541.83
2018-11-03T02:22:56.055Z,101534.81
2018-11-03T02:25:24.614Z,101538.42
2018-11-03T02:27:53.155Z,101528.33
2018-11-03T02:30:21.673Z,101538.47
2018-11-03T02:32:50.260Z,101542.92
2018-11-03T02:35:18.734Z,101544.66
2018-11-03T02:37:47.539Z,101550.33
2018-11-03T02:40:16.162Z,101551.25
2018-11-03T02:42:44.815Z,101557.94
2018-11-03T02:45:13.387Z,101567.65
2018-11-03T02:47:42.368Z,101553.80
2018-11-03T02:50:13.238Z,101564.72
2018-11-03T02:52:42.144Z,101561.25
2018-11-03T02:55:10.934Z,101574.12
2018-11-03T02:57:39.858Z,101569.80
2018-11-03T03:00:09.550Z,101565.59
2018-11-03T03:02:38.045Z,101570.03
2018-11-03T03:05:07.920Z,101590.27
2018-11-03T03:07:36.467Z,101571.44
2018-11-03T03:10:06.491Z,101578.85
2018-11-03T03:12:35.522Z,101576.22
2018-11-03T03:15:04.583Z,101582.94
2018-11-03T03:17:33.101Z,101584.22
2018-11-03T03:20:01.881Z,101586.94
2018-11-03T03:22:30.365Z,101582.10
2018-11-03T03:24:58.986Z,101593.95
2018-11-03T03:27:27.538Z,101599.22
2018-11-03T03:29:56.145Z,101600.53
2018-11-03T03:32:24.835Z,101605.06
2018-11-03T03:34:53.509Z,101617.66
2018-11-03T03:37:22.320Z,101617.13
2018-11-03T03:39:50.895Z,101619.46
2018-11-03T03:42:19.652Z,101628.28
2018-11-03T03:44:48.238Z,101624.42
2018-11-03T03:47:16.862Z,101626.63
2018-11-03T03:49:46.219Z,101637.16
2018-11-03T03:52:14.694Z,101638.12
2018-11-03T03:54:43.392Z,101640.35
2018-11-03T03:57:11.868Z,101643.38
2018-11-03T03:59:40.683Z,101635.58
2018-11-03T04:02:09.167Z,101643.52
2018-11-03T04:04:37.935Z,101644.48
2018-11-03T04:07:06.855Z,101644.48
2018-11-03T04:09:35.442Z,101653.27
2018-11-03T04:12:04.072Z,101643.08
2018-11-03T04:14:32.654Z,101655.19
2018-11-03T04:17:01.591Z,101663.58
2018-11-03T04:19:30.127Z,101655.59
2018-11-03T04:21:58.823Z,101659.05
2018-11-03T04:24:27.293Z,101651.07
2018-11-03T04:26:55.903Z,101649.27
2018-11-03T04:29:24.457Z,101655.36
2018-11-03T04:31:52.987Z,101668.13
2018-11-03T04:34:21.627Z,101675.52
2018-11-03T04:36:50.087Z,101675.11
2018-11-03T04:39:18.769Z,101690.55
2018-11-03T04:41:47.246Z,101694.03
2018-11-03T04:44:15.807Z,101703.67
2018-11-03T04:46:44.358Z,101704.86
2018-11-03T04:49:13.207Z,101706.54
2018-11-03T04:51:41.854Z,101693.86
2018-11-03T04:54:10.427Z,101708.60
2018-11-03T04:56:39.262Z,101701.55
2018-11-03T04:59:07.740Z,101702.33
2018-11-03T05:01:36.423Z,101705.41
2018-11-03T05:04:05.286Z,101697.55
2018-11-03T05:06:33.778Z,101698.47
2018-11-03T05:09:02.501Z,101705.97
2018-11-03T05:11:31.043Z,101706.05
2018-11-03T05:13:59.738Z,101712.72
2018-11-03T05:16:28.252Z,101716.23
2018-11-03T05:18:57.013Z,101718.95
2018-11-03T05:21:25.613Z,101722.47
2018-11-03T05:23:54.167Z,101726.86
2018-11-03T05:26:22.695Z,101735.67
2018-11-03T05:28:51.344Z,101734.31
2018-11-03T05:31:20.112Z,101733.44
2018-11-03T05:33:48.551Z,101738.30
2018-11-03T05:36:17.405Z,101735.67
2018-11-03T05:38:45.854Z,101739.14
2018-11-03T05:41:14.447Z,101736.55
2018-11-03T05:43:42.922Z,101734.84
2018-11-03T05:46:11.402Z,101738.39
2018-11-03T05:48:40.791Z,101698.73
2018-11-03T05:51:09.336Z,101740.59
2018-11-03T05:53:38.007Z,101740.59
2018-11-03T05:56:06.497Z,101748.05
2018-11-03T05:58:35.068Z,101753.00
2018-11-03T06:01:03.664Z,101760.90
2018-11-03T06:03:32.188Z,101768.31
2018-11-03T06:06:01.015Z,101778.84
2018-11-03T06:08:29.514Z,101775.30
2018-11-03T06:10:58.306Z,101792.93
2018-11-03T06:13:26.931Z,101790.26
2018-11-03T06:15:55.589Z,101800.47
2018-11-03T06:18:24.156Z,101801.86
2018-11-03T06:20:52.858Z,101807.13
2018-11-03T06:23:21.392Z,101810.67
2018-11-03T06:25:49.867Z,101811.48
2018-11-03T06:28:18.723Z,101815.86
2018-11-03T06:30:47.285Z,101828.59
2018-11-03T06:33:15.810Z,101829.42
2018-11-03T06:35:44.387Z,101826.87
2018-11-03T06:38:12.874Z,101833.53
2018-11-03T06:40:42.067Z,101836.56
2018-11-03T06:43:10.542Z,101838.87
2018-11-03T06:45:39.399Z,101789.55
2018-11-03T06:48:07.992Z,101851.48
2018-11-03T06:50:36.754Z,101801.31
2018-11-03T06:53:05.594Z,101852.80
2018-11-03T06:55:34.310Z,101857.98
2018-11-03T06:58:03.095Z,101846.91
2018-11-03T07:00:31.626Z,101853.45
2018-11-03T07:03:00.913Z,101806.78
2018-11-03T07:05:29.557Z,101864.41
2018-11-03T07:07:58.930Z,101858.55
2018-11-03T07:10:27.718Z,101861.58
2018-11-03T07:12:58.469Z,101863.30
2018-11-03T07:15:29.598Z,101864.83
2018-11-03T07:17:58.179Z,101872.61
2018-11-03T07:20:26.758Z,101873.02
2018-11-03T07:22:56.539Z,101864.78
2018-11-03T07:25:25.156Z,101871.05
2018-11-03T07:27:53.953Z,101872.88
2018-11-03T07:30:22.581Z,101872.52
2018-11-03T07:32:51.458Z,101871.64
2018-11-03T07:35:20.094Z,101871.60
2018-11-03T07:37:48.670Z,101880.49
2018-11-03T07:40:17.217Z,101879.22
2018-11-03T07:42:45.778Z,101877.98
2018-11-03T07:45:14.387Z,101886.16
2018-11-03T07:47:42.870Z,101888.76
2018-11-03T07:50:12.724Z,101896.22
2018-11-03T07:52:42.015Z,101886.67
2018-11-03T07:55:12.093Z,101898.89
2018-11-03T07:57:40.890Z,101901.56
2018-11-03T08:00:12.032Z,101848.81
2018-11-03T08:02:40.550Z,101902.73
2018-11-03T08:05:10.455Z,101900.86
2018-11-03T08:07:39.637Z,101899.86
2018-11-03T08:10:09.867Z,101907.25
2018-11-03T08:12:38.462Z,101900.63
2018-11-03T08:15:08.120Z,101805.11
2018-11-03T08:17:36.714Z,101912.76
2018-11-03T08:20:06.843Z,101920.11
2018-11-03T08:22:35.766Z,101917.40
2018-11-03T08:25:04.638Z,101923.42
2018-11-03T08:27:33.112Z,101919.80
2018-11-03T08:30:01.741Z,101925.83
2018-11-03T08:32:30.258Z,101921.43
2018-11-03T08:34:58.752Z,101927.22
2018-11-03T08:37:27.554Z,101819.85
2018-11-03T08:39:56.023Z,101935.63
2018-11-03T08:42:24.922Z,101938.02
2018-11-03T08:44:53.523Z,101933.90
2018-11-03T08:47:22.191Z,101930.74
2018-11-03T08:49:50.757Z,101936.45
2018-11-03T08:52:19.450Z,101933.30
2018-11-03T08:54:48.031Z,101936.37
2018-11-03T08:57:16.624Z,101934.61
2018-11-03T08:59:45.649Z,101944.67
2018-11-03T09:02:14.231Z,101950.35
2018-11-03T09:04:42.960Z,101949.83
2018-11-03T09:07:11.585Z,101950.61
2018-11-03T09:09:40.145Z,101946.97
2018-11-03T09:12:08.651Z,101951.24
2018-11-03T09:14:37.242Z,101951.24
2018-11-03T09:17:06.123Z,101952.96
2018-11-03T09:19:34.582Z,101958.98
2018-11-03T09:22:03.518Z,101962.45
2018-11-03T09:24:32.047Z,101970.28
2018-11-03T09:27:00.638Z,101974.64
2018-11-03T09:29:29.263Z,101965.23
2018-11-03T09:31:57.915Z,101964.56
2018-11-03T09:34:28.428Z,101970.02
2018-11-03T09:36:56.926Z,101967.55
2018-11-03T09:39:25.631Z,101967.45
2018-11-03T09:41:54.214Z,101959.23
2018-11-03T09:44:23.769Z,101903.67
2018-11-03T09:46:52.396Z,101955.89
2018-11-03T09:49:21.099Z,101958.09
2018-11-03T09:51:49.726Z,101961.04
2018-11-03T09:54:18.943Z,101960.64
2018-11-03T09:56:47.595Z,101958.00
2018-11-03T09:59:16.107Z,101970.09
2018-11-03T10:01:44.689Z,101968.47
2018-11-03T10:04:13.159Z,101965.73
2018-11-03T10:06:41.681Z,101970.92
2018-11-03T10:09:10.260Z,101981.39
2018-11-03T10:11:38.759Z,101980.08
2018-11-03T10:14:07.359Z,101986.34
2018-11-03T10:16:35.976Z,101991.95
2018-11-03T10:19:04.622Z,101995.39
2018-11-03T10:21:33.230Z,101989.22
2018-11-03T10:24:02.632Z,101949.08
2018-11-03T10:26:31.372Z,101997.10
2018-11-03T10:29:00.022Z,101997.23
2018-11-03T10:31:28.486Z,101995.83
2018-11-03T10:33:57.136Z,102010.08
2018-11-03T10:36:25.730Z,102012.89
2018-11-03T10:38:54.255Z,102007.70
2018-11-03T10:41:22.946Z,101944.61
2018-11-03T10:43:51.567Z,102011.09
2018-11-03T10:46:20.459Z,102015.84
2018-11-03T10:48:49.015Z,102016.37
2018-11-03T10:51:17.600Z,102007.61
2018-11-03T10:53:46.249Z,102017.66
2018-11-03T10:56:14.748Z,102007.14
2018-11-03T10:58:43.426Z,102001.32
2018-11-03T11:01:17.228Z,102006.86
2018-11-03T11:03:51.179Z,102004.80
2018-11-03T11:06:25.131Z,102001.81
2018-11-03T11:08:59.063Z,101987.12
2018-11-03T11:11:32.742Z,102015.36
2018-11-03T11:14:01.262Z,102021.34
2018-11-03T11:16:30.032Z,101972.21
2018-11-03T11:18:58.403Z,102015.75
2018-11-03T11:21:27.088Z,101920.64
2018-11-03T11:23:55.720Z,102015.66
2018-11-03T11:26:24.254Z,102019.52
2018-11-03T11:28:52.778Z,102021.72
2018-11-03T11:31:21.460Z,102022.98
2018-11-03T11:33:51.210Z,102020.94
2018-11-03T11:36:19.739Z,102024.91
2018-11-03T11:38:49.106Z,102026.08
2018-11-03T11:41:17.715Z,102030.34
2018-11-03T11:43:46.515Z,102028.84
2018-11-03T11:46:15.159Z,102021.01
2018-11-03T11:48:43.869Z,102025.98
2018-11-03T11:51:12.421Z,102026.03
2018-11-03T11:53:40.962Z,102027.70
2018-11-03T11:56:09.600Z,102022.52
2018-11-03T11:58:38.072Z,102023.16
2018-11-03T12:01:06.870Z,102020.95
2018-11-03T12:03:35.359Z,102027.12
2018-11-03T12:06:04.184Z,102021.01
2018-11-03T12:08:32.808Z,102022.75
2018-11-03T12:11:01.439Z,102014.78
2018-11-03T12:13:30.027Z,102014.19
2018-11-03T12:15:58.517Z,102021.01
2018-11-03T12:18:27.350Z,102015.67
2018-11-03T12:20:55.888Z,102014.88
2018-11-03T12:23:24.743Z,102023.25
2018-11-03T12:25:53.356Z,102015.28
2018-11-03T12:28:21.926Z,102020.16
2018-11-03T12:30:50.467Z,102017.56
2018-11-03T12:33:18.960Z,102018.89
2018-11-03T12:35:47.723Z,101945.81
2018-11-03T12:38:17.083Z,102021.19
2018-11-03T12:40:45.992Z,102017.14
2018-11-03T12:43:14.414Z,102017.56
2018-11-03T12:45:43.039Z,102010.63
2018-11-03T12:48:11.574Z,102007.25
2018-11-03T12:50:40.139Z,101954.44
2018-11-03T12:53:08.670Z,102004.50
2018-11-03T12:55:37.222Z,102012.87
2018-11-03T12:58:05.879Z,102014.19
2018-11-03T13:00:34.432Z,102000.11
2018-11-03T13:03:03.275Z,102009.15
2018-11-03T13:05:31.759Z,102004.70
2018-11-03T13:08:00.480Z,102002.95
2018-11-03T13:10:29.022Z,102001.32
2018-11-03T13:12:57.503Z,101992.13
2018-11-03T13:15:26.282Z,101999.69
2018-11-03T13:17:55.382Z,101995.04
2018-11-03T13:20:24.234Z,101988.12
2018-11-03T13:22:52.833Z,101990.86
2018-11-03T13:25:21.587Z,101995.05
2018-11-03T13:27:50.062Z,101991.18
2018-11-03T13:30:18.527Z,101995.14
2018-11-03T13:32:46.980Z,101999.27
2018-11-03T13:35:15.460Z,101993.68
2018-11-03T13:37:44.084Z,101998.17
2018-11-03T13:40:15.388Z,101992.58
2018-11-03T13:42:44.584Z,102000.85
2018-11-03T13:45:13.019Z,101984.23
2018-11-03T13:47:41.794Z,101988.75
2018-11-03T13:50:11.482Z,101987.52
2018-11-03T13:52:40.666Z,101988.84
2018-11-03T13:55:09.688Z,101986.28
2018-11-03T13:57:38.452Z,101988.09
2018-11-03T14:00:07.919Z,101988.09
2018-11-03T14:02:36.712Z,101986.41
2018-11-03T14:05:05.620Z,101985.70
2018-11-03T14:07:34.238Z,101988.38
2018-11-03T14:10:02.802Z,101985.87
2018-11-03T14:12:31.315Z,101986.88
2018-11-03T14:14:59.999Z,101983.36
2018-11-03T14:17:28.487Z,101987.41
2018-11-03T14:19:57.235Z,101974.25
2018-11-03T14:22:25.687Z,101980.48
2018-11-03T14:24:54.234Z,101976.58
2018-11-03T14:27:22.766Z,101981.97
2018-11-03T14:29:51.293Z,101972.78
2018-11-03T14:32:20.040Z,101947.15
2018-11-03T14:34:48.583Z,101979.45
2018-11-03T14:37:17.508Z,101982.13
2018-11-03T14:39:45.990Z,101990.08
2018-11-03T14:42:14.510Z,101978.22
2018-11-03T14:44:43.009Z,101979.62
2018-11-03T14:47:11.503Z,101976.06
2018-11-03T14:49:40.325Z,101977.90
2018-11-03T14:52:08.826Z,101970.47
2018-11-03T14:54:37.678Z,101932.65
2018-11-03T14:57:06.355Z,101976.30
2018-11-03T14:59:34.989Z,101972.87
2018-11-03T15:02:03.499Z,101971.63
2018-11-03T15:04:32.383Z,101973.86
2018-11-03T15:07:00.974Z,101967.50
2018-11-03T15:09:29.454Z,101973.14
2018-11-03T15:11:58.191Z,101970.22
2018-11-03T15:14:26.680Z,101973.26
2018-11-03T15:16:55.219Z,101978.13
2018-11-03T15:19:23.706Z,101970.77
2018-11-03T15:21:52.187Z,101972.58
2018-11-03T15:24:20.818Z,101984.03
2018-11-03T15:26:49.369Z,101979.83
2018-11-03T15:29:18.078Z,101985.09
2018-11-03T15:31:46.715Z,101986.05
2018-11-03T15:34:15.359Z,101985.65
2018-11-03T15:36:44.837Z,101975.66
2018-11-03T15:39:13.410Z,101987.11
2018-11-03T15:41:42.063Z,101983.20
2018-11-03T15:44:10.555Z,101983.23
2018-11-03T15:46:39.518Z,101985.39
2018-11-03T15:49:08.068Z,101982.76
2018-11-03T15:51:36.846Z,101927.45
2018-11-03T15:54:05.453Z,101974.09
2018-11-03T15:56:34.042Z,101744.43
2018-11-03T15:59:02.524Z,101972.44
2018-11-03T16:01:31.011Z,101969.84
2018-11-03T16:03:59.668Z,101970.36
2018-11-03T16:06:28.539Z,101970.43
2018-11-03T16:08:57.263Z,101971.34
2018-11-03T16:11:25.910Z,101972.66
2018-11-03T16:13:54.639Z,101975.33
2018-11-03T16:16:23.193Z,101974.45
2018-11-03T16:18:51.735Z,101977.09
2018-11-03T16:21:20.226Z,101972.73
2018-11-03T16:23:48.721Z,101978.00
2018-11-03T16:26:17.575Z,101973.61
2018-11-03T16:28:46.047Z,101982.34
2018-11-03T16:31:14.673Z,101985.02
2018-11-03T16:33:43.206Z,101991.67
2018-11-03T16:36:11.699Z,101992.14
2018-11-03T16:38:40.218Z,101980.54
2018-11-03T16:41:08.747Z,101995.76
2018-11-03T16:43:37.590Z,101988.27
2018-11-03T16:46:06.255Z,101982.53
2018-11-03T16:48:34.923Z,101986.98
2018-11-03T16:51:03.483Z,101985.67
2018-11-03T16:53:31.989Z,101986.11
2018-11-03T16:56:00.534Z,101991.30
2018-11-03T16:58:29.048Z,101990.02
2018-11-03T17:00:57.759Z,101988.77
2018-11-03T17:03:26.338Z,101991.41
2018-11-03T17:05:55.099Z,101990.49
2018-11-03T17:08:23.571Z,101995.36
2018-11-03T17:10:52.127Z,102001.46
2018-11-03T17:13:20.600Z,101993.20
2018-11-03T17:15:49.127Z,101997.66
2018-11-03T17:18:17.770Z,102001.56
2018-11-03T17:20:46.250Z,102001.94
2018-11-03T17:23:14.830Z,102003.69
2018-11-03T17:25:43.305Z,102000.63
2018-11-03T17:28:11.895Z,102008.45
2018-11-03T17:30:40.458Z,102011.86
2018-11-03T17:33:08.952Z,102017.49
2018-11-03T17:35:37.669Z,102019.21
2018-11-03T17:38:06.679Z,102009.89
2018-11-03T17:40:35.549Z,102016.33
2018-11-03T17:43:04.100Z,102010.59
2018-11-03T17:45:33.722Z,102016.23
2018-11-03T17:48:02.319Z,102007.48
2018-11-03T17:50:30.897Z,102016.66
2018-11-03T17:52:59.542Z,101967.23
2018-11-03T17:55:28.702Z,102017.03
2018-11-03T17:57:57.562Z,102012.61
2018-11-03T18:00:26.592Z,102018.72
2018-11-03T18:02:55.410Z,101974.92
2018-11-03T18:05:23.997Z,102015.03
2018-11-03T18:07:53.162Z,102008.88
2018-11-03T18:10:21.807Z,102007.93
2018-11-03T18:12:52.624Z,102014.00
2018-11-03T18:15:21.228Z,102008.70
2018-11-03T18:17:49.804Z,102020.92
2018-11-03T18:20:18.286Z,101999.11
2018-11-03T18:22:46.893Z,102010.23
2018-11-03T18:25:15.595Z,102009.16
2018-11-03T18:27:44.710Z,102004.73
2018-11-03T18:30:14.080Z,102008.93
2018-11-03T18:32:43.170Z,102011.01
2018-11-03T18:35:12.127Z,102010.50
2018-11-03T18:37:40.647Z,102010.89
2018-11-03T18:40:09.746Z,102009.94
2018-11-03T18:42:38.480Z,102006.38
2018-11-03T18:45:07.387Z,102006.82
2018-11-03T18:47:36.051Z,102004.10
2018-11-03T18:50:05.528Z,102001.47
2018-11-03T18:52:34.167Z,102006.70
2018-11-03T18:55:02.659Z,102000.15
2018-11-03T18:57:31.529Z,102003.22
2018-11-03T19:00:00.094Z,102001.55
2018-11-03T19:02:28.817Z,101999.71
2018-11-03T19:04:57.332Z,102002.86
2018-11-03T19:07:25.867Z,102001.11
2018-11-03T19:09:54.526Z,102012.58
2018-11-03T19:12:23.056Z,102006.06
2018-11-03T19:14:51.768Z,102010.02
2018-11-03T19:17:20.356Z,102008.70
2018-11-03T19:19:48.986Z,102006.55
2018-11-03T19:22:17.543Z,102008.62
2018-11-03T19:24:46.171Z,102002.34
2018-11-03T19:27:14.652Z,102004.06
2018-11-03T19:29:43.221Z,101996.19
2018-11-03T19:32:12.189Z,101935.80
2018-11-03T19:34:40.676Z,102001.03
2018-11-03T19:37:13.032Z,101999.27
2018-11-03T19:39:43.016Z,102000.15
2018-11-03T19:42:14.631Z,102002.27
2018-11-03T19:44:44.364Z,102000.47
2018-11-03T19:47:12.839Z,101998.23
2018-11-03T19:49:43.001Z,101997.35
2018-11-03T19:52:11.595Z,101998.27
2018-11-03T19:54:40.212Z,102006.58
2018-11-03T19:57:08.802Z,101999.55
2018-11-03T19:59:37.367Z,102004.47
2018-11-03T20:02:07.975Z,101914.84
2018-11-03T20:04:36.607Z,102005.34
2018-11-03T20:07:05.691Z,102004.47
2018-11-03T20:09:34.151Z,102004.02
2018-11-03T20:12:02.833Z,102008.45
2018-11-03T20:14:31.319Z,102011.09
2018-11-03T20:16:59.810Z,102003.63
2018-11-03T20:19:28.361Z,102010.26
2018-11-03T20:21:56.883Z,102009.45
2018-11-03T20:24:26.852Z,102003.34
2018-11-03T20:26:57.163Z,102004.74
2018-11-03T20:29:29.218Z,102009.61
2018-11-03T20:31:58.272Z,102011.09
2018-11-03T20:34:27.666Z,102009.25
2018-11-03T20:37:06.670Z,102005.34
2018-11-03T20:39:36.174Z,102022.03
2018-11-03T20:42:06.879Z,102005.81
2018-11-03T20:44:38.776Z,102013.31
2018-11-03T20:47:09.270Z,102000.58
2018-11-03T20:49:38.299Z,101999.86
2018-11-03T20:52:09.328Z,102009.52
2018-11-03T20:54:38.846Z,102001.69
2018-11-03T20:57:10.531Z,101956.27
2018-11-03T20:59:39.083Z,102017.54
2018-11-03T21:02:08.126Z,102013.70
2018-11-03T21:04:37.041Z,102014.03
2018-11-03T21:07:06.684Z,101960.04
2018-11-03T21:09:36.678Z,102009.75
2018-11-03T21:12:05.767Z,102011.06
2018-11-03T21:14:34.963Z,102005.80
2018-11-03T21:17:06.579Z,102002.24
2018-11-03T21:19:35.886Z,101999.69
2018-11-03T21:22:08.251Z,102001.08
2018-11-03T21:24:38.102Z,102001.56
2018-11-03T21:27:10.812Z,101999.91
2018-11-03T21:29:41.898Z,101996.44
2018-11-03T21:32:12.913Z,101988.61
2018-11-03T21:34:42.167Z,101992.63
2018-11-03T21:37:12.891Z,101989.52
2018-11-03T21:39:42.302Z,101986.96
2018-11-03T21:42:11.631Z,102001.05
2018-11-03T21:44:41.735Z,101990.98
2018-11-03T21:47:11.962Z,101995.78
2018-11-03T21:49:41.380Z,101990.52
2018-11-03T21:52:11.361Z,101995.34
2018-11-03T21:54:39.962Z,101996.66
2018-11-03T21:57:08.931Z,101997.09
2018-11-03T21:59:37.470Z,102005.95
2018-11-03T22:02:06.718Z,101959.56
2018-11-03T22:04:35.324Z,101998.48
2018-11-03T22:07:04.123Z,102000.69
2018-11-03T22:09:32.607Z,102003.72
2018-11-03T22:12:01.212Z,101997.50
2018-11-03T22:14:29.750Z,101997.91
2018-11-03T22:16:58.322Z,101993.91
2018-11-03T22:19:27.015Z,101990.77
2018-11-03T22:21:55.810Z,101992.56
2018-11-03T22:24:24.581Z,102000.54
2018-11-03T22:26:53.171Z,101990.91
2018-11-03T22:29:22.864Z,101992.37
2018-11-03T22:31:51.461Z,101996.26
2018-11-03T22:34:20.111Z,101997.17
2018-11-03T22:36:48.706Z,101994.98
2018-11-03T22:39:17.305Z,101997.72
2018-11-03T22:41:46.100Z,101995.16
2018-11-03T22:44:14.675Z,102004.41
2018-11-03T22:46:43.472Z,101997.39
2018-11-03T22:49:11.983Z,101999.63
2018-11-03T22:51:41.085Z,102005.36
2018-11-03T22:54:09.723Z,101995.70
2018-11-03T22:56:38.304Z,101977.85
2018-11-03T22:59:07.468Z,101964.03
2018-11-03T23:01:35.992Z,101991.79
2018-11-03T23:04:04.877Z,101984.77
2018-11-03T23:06:33.438Z,101984.77
2018-11-03T23:09:03.766Z,101987.36
2018-11-03T23:11:32.276Z,101981.99
2018-11-03T23:14:01.225Z,101993.29
2018-11-03T23:16:29.736Z,101983.56
2018-11-03T23:18:58.370Z,101991.47
2018-11-03T23:21:27.179Z,101981.77
2018-11-03T23:23:57.373Z,101984.41
2018-11-03T23:26:26.963Z,101982.61
2018-11-03T23:28:56.931Z,101986.92
2018-11-03T23:31:25.575Z,101981.69
2018-11-03T23:33:54.057Z,101979.13
2018-11-03T23:36:22.742Z,101971.71
2018-11-03T23:38:51.443Z,101975.84
2018-11-03T23:41:20.549Z,101973.69
2018-11-03T23:43:49.097Z,101975.08
2018-11-03T23:46:18.009Z,101972.84
2018-11-03T23:48:47.363Z,101968.89
2018-11-03T23:51:16.190Z,101969.88
2018-11-03T23:53:44.775Z,101968.97
2018-11-03T23:56:14.887Z,101968.97
2018-11-03T23:58:44.344Z,101977.67
